sensor_id;sensor_type;location;lat;lon;timestamp;pressure;altitude;pressure_sealevel;temperature;humidity
73628;BME280;61923;51.846;5.856;2023-02-22T00:00:22;101464.03;;;15.64;65.55
73628;BME280;61923;51.846;5.856;2023-02-22T00:02:54;101458.94;;;15.63;65.64
73628;BME280;61923;51.846;5.856;2023-02-22T00:05:25;101462.34;;;15.63;65.55
73628;BME280;61923;51.846;5.856;2023-02-22T00:07:52;101456.16;;;15.64;65.55
73628;BME280;61923;51.846;5.856;2023-02-22T00:10:21;101449.56;;;15.60;65.69
73628;BME280;61923;51.846;5.856;2023-02-22T00:12:51;101453.81;;;15.61;65.73
73628;BME280;61923;51.846;5.856;2023-02-22T00:15:22;101458.94;;;15.63;65.85
73628;BME280;61923;51.846;5.856;2023-02-22T00:17:52;101451.22;;;15.61;65.85
73628;BME280;61923;51.846;5.856;2023-02-22T00:20:18;101441.03;;;15.58;66.28
73628;BME280;61923;51.846;5.856;2023-02-22T00:22:46;101425.13;;;15.42;65.87
73628;BME280;61923;51.846;5.856;2023-02-22T00:25:14;101448.75;;;15.60;65.84
73628;BME280;61923;51.846;5.856;2023-02-22T00:27:41;101454.81;;;15.60;66.20
73628;BME280;61923;51.846;5.856;2023-02-22T00:30:08;101450.84;;;15.56;65.77
73628;BME280;61923;51.846;5.856;2023-02-22T00:32:34;101454.94;;;15.59;66.07
73628;BME280;61923;51.846;5.856;2023-02-22T00:35:00;101446.56;;;15.55;66.09
73628;BME280;61923;51.846;5.856;2023-02-22T00:37:29;101458.25;;;15.61;65.81
73628;BME280;61923;51.846;5.856;2023-02-22T00:39:55;101453.16;;;15.59;66.07
73628;BME280;61923;51.846;5.856;2023-02-22T00:42:21;101454.94;;;15.59;65.96
73628;BME280;61923;51.846;5.856;2023-02-22T00:44:46;101457.44;;;15.60;66.23
73628;BME280;61923;51.846;5.856;2023-02-22T00:47:12;101454.94;;;15.59;66.29
73628;BME280;61923;51.846;5.856;2023-02-22T00:49:38;101454.94;;;15.59;66.09
73628;BME280;61923;51.846;5.856;2023-02-22T00:52:04;101454.94;;;15.59;66.22
73628;BME280;61923;51.846;5.856;2023-02-22T00:54:29;101447.22;;;15.57;65.99
73628;BME280;61923;51.846;5.856;2023-02-22T00:56:55;101447.09;;;15.59;66.07
73628;BME280;61923;51.846;5.856;2023-02-22T00:59:25;101449.56;;;15.60;66.11
73628;BME280;61923;51.846;5.856;2023-02-22T01:01:55;101442.69;;;15.59;66.17
73628;BME280;61923;51.846;5.856;2023-02-22T01:04:20;101450.38;;;15.61;66.24
73628;BME280;61923;51.846;5.856;2023-02-22T01:06:48;101444.47;;;15.59;66.28
73628;BME280;61923;51.846;5.856;2023-02-22T01:09:14;101439.25;;;15.59;66.40
73628;BME280;61923;51.846;5.856;2023-02-22T01:11:39;101430.56;;;15.58;66.63
73628;BME280;61923;51.846;5.856;2023-02-22T01:14:05;101432.38;;;15.58;66.57
73628;BME280;61923;51.846;5.856;2023-02-22T01:16:34;101434.81;;;15.59;66.54
73628;BME280;61923;51.846;5.856;2023-02-22T01:18:59;101424.78;;;15.54;66.71
73628;BME280;61923;51.846;5.856;2023-02-22T01:21:25;101427.81;;;15.60;66.68
73628;BME280;61923;51.846;5.856;2023-02-22T01:23:51;101432.19;;;15.59;66.65
73628;BME280;61923;51.846;5.856;2023-02-22T01:26:16;101420.91;;;15.59;66.55
73628;BME280;61923;51.846;5.856;2023-02-22T01:28:42;101414.84;;;15.58;66.55
73628;BME280;61923;51.846;5.856;2023-02-22T01:31:07;101420.91;;;15.59;66.50
73628;BME280;61923;51.846;5.856;2023-02-22T01:33:33;101408.09;;;15.56;66.86
73628;BME280;61923;51.846;5.856;2023-02-22T01:35:58;101411.84;;;15.53;66.75
73628;BME280;61923;51.846;5.856;2023-02-22T01:38:25;101409.09;;;15.54;66.96
73628;BME280;61923;51.846;5.856;2023-02-22T01:40:51;101407.97;;;15.57;66.63
73628;BME280;61923;51.846;5.856;2023-02-22T01:43:21;101406.34;;;15.56;66.89
73628;BME280;61923;51.846;5.856;2023-02-22T01:45:50;101400.41;;;15.54;66.92
73628;BME280;61923;51.846;5.856;2023-02-22T01:48:24;101396.81;;;15.55;66.93
73628;BME280;61923;51.846;5.856;2023-02-22T01:51:22;101401.38;;;15.53;66.86
73628;BME280;61923;51.846;5.856;2023-02-22T01:53:55;101399.75;;;15.52;67.14
73628;BME280;61923;51.846;5.856;2023-02-22T01:56:24;101384.88;;;15.43;67.18
73628;BME280;61923;51.846;5.856;2023-02-22T01:59:04;101398.63;;;15.54;67.25
73628;BME280;61923;51.846;5.856;2023-02-22T02:01:35;101382.69;;;15.48;67.06
73628;BME280;61923;51.846;5.856;2023-02-22T02:04:06;101392.56;;;15.54;67.15
73628;BME280;61923;51.846;5.856;2023-02-22T02:06:34;101391.88;;;15.52;67.07
73628;BME280;61923;51.846;5.856;2023-02-22T02:09:25;101386.47;;;15.53;67.19
73628;BME280;61923;51.846;5.856;2023-02-22T02:11:54;101374.25;;;15.54;67.54
73628;BME280;61923;51.846;5.856;2023-02-22T02:14:20;101377.66;;;15.54;67.34
73628;BME280;61923;51.846;5.856;2023-02-22T02:16:48;101376.84;;;15.54;67.52
73628;BME280;61923;51.846;5.856;2023-02-22T02:22:01;101370.78;;;15.53;67.38
73628;BME280;61923;51.846;5.856;2023-02-22T02:35:29;101354.25;;;15.53;67.62
73628;BME280;61923;51.846;5.856;2023-02-22T02:38:40;101357.84;;;15.52;67.65
73628;BME280;61923;51.846;5.856;2023-02-22T02:41:26;101353.44;;;15.52;67.46
73628;BME280;61923;51.846;5.856;2023-02-22T02:43:58;101350.00;;;15.52;67.64
73628;BME280;61923;51.846;5.856;2023-02-22T02:46:50;101337.69;;;15.62;67.50
73628;BME280;61923;51.846;5.856;2023-02-22T02:49:28;101337.38;;;15.65;67.50
73628;BME280;61923;51.846;5.856;2023-02-22T02:51:55;101331.91;;;15.59;68.01
73628;BME280;61923;51.846;5.856;2023-02-22T02:54:22;101335.66;;;15.56;68.14
73628;BME280;61923;51.846;5.856;2023-02-22T02:56:49;101330.03;;;15.51;68.11
73628;BME280;61923;51.846;5.856;2023-02-22T02:59:36;101332.34;;;15.54;68.19
73628;BME280;61923;51.846;5.856;2023-02-22T03:11:20;101313.63;;;15.49;68.08
73628;BME280;61923;51.846;5.856;2023-02-22T03:14:00;101321.34;;;15.50;68.25
73628;BME280;61923;51.846;5.856;2023-02-22T03:19:19;101318.19;;;15.47;68.52
73628;BME280;61923;51.846;5.856;2023-02-22T03:21:55;101321.50;;;15.49;68.27
73628;BME280;61923;51.846;5.856;2023-02-22T03:24:28;101316.25;;;15.49;68.14
73628;BME280;61923;51.846;5.856;2023-02-22T03:27:11;101319.84;;;15.48;68.38
73628;BME280;61923;51.846;5.856;2023-02-22T03:29:42;101317.91;;;15.50;68.33
73628;BME280;61923;51.846;5.856;2023-02-22T03:32:13;101319.53;;;15.51;68.19
73628;BME280;61923;51.846;5.856;2023-02-22T03:34:43;101317.91;;;15.50;68.21
73628;BME280;61923;51.846;5.856;2023-02-22T03:37:26;101322.47;;;15.48;68.19
73628;BME280;61923;51.846;5.856;2023-02-22T03:39:54;101316.25;;;15.49;68.22
73628;BME280;61923;51.846;5.856;2023-02-22T03:42:33;101311.00;;;15.49;68.13
73628;BME280;61923;51.846;5.856;2023-02-22T03:45:03;101310.19;;;15.48;68.44
73628;BME280;61923;51.846;5.856;2023-02-22T03:47:45;101304.97;;;15.48;68.29
73628;BME280;61923;51.846;5.856;2023-02-22T03:50:17;101306.59;;;15.49;68.22
73628;BME280;61923;51.846;5.856;2023-02-22T03:52:44;101307.72;;;15.47;68.26
73628;BME280;61923;51.846;5.856;2023-02-22T03:55:12;101301.69;;;15.46;68.54
73628;BME280;61923;51.846;5.856;2023-02-22T03:57:45;101301.53;;;15.48;68.14
73628;BME280;61923;51.846;5.856;2023-02-22T04:00:15;101304.16;;;15.48;68.25
73628;BME280;61923;51.846;5.856;2023-02-22T04:02:44;101304.16;;;15.48;68.30
73628;BME280;61923;51.846;5.856;2023-02-22T04:05:10;101292.16;;;15.45;68.45
73628;BME280;61923;51.846;5.856;2023-02-22T04:07:38;101287.91;;;15.44;68.57
73628;BME280;61923;51.846;5.856;2023-02-22T04:10:04;101280.50;;;15.40;68.44
73628;BME280;61923;51.846;5.856;2023-02-22T04:12:33;101285.16;;;15.46;68.58
73628;BME280;61923;51.846;5.856;2023-02-22T04:14:58;101284.03;;;15.48;68.78
73628;BME280;61923;51.846;5.856;2023-02-22T04:17:23;101290.38;;;15.46;68.77
73628;BME280;61923;51.846;5.856;2023-02-22T04:19:49;101285.16;;;15.46;68.80
73628;BME280;61923;51.846;5.856;2023-02-22T04:22:15;101289.41;;;15.47;68.74
73628;BME280;61923;51.846;5.856;2023-02-22T04:24:41;101279.91;;;15.46;68.64
73628;BME280;61923;51.846;5.856;2023-02-22T04:27:06;101275.66;;;15.45;68.85
73628;BME280;61923;51.846;5.856;2023-02-22T04:29:31;101279.91;;;15.46;68.58
73628;BME280;61923;51.846;5.856;2023-02-22T04:31:57;101279.91;;;15.46;68.54
73628;BME280;61923;51.846;5.856;2023-02-22T04:34:22;101279.91;;;15.46;68.72
73628;BME280;61923;51.846;5.856;2023-02-22T04:36:47;101278.25;;;15.45;68.52
73628;BME280;61923;51.846;5.856;2023-02-22T04:39:13;101272.88;;;15.46;68.63
73628;BME280;61923;51.846;5.856;2023-02-22T04:41:39;101269.72;;;15.43;68.83
73628;BME280;61923;51.846;5.856;2023-02-22T04:44:04;101252.53;;;15.40;68.77
73628;BME280;61923;51.846;5.856;2023-02-22T04:46:29;101256.19;;;15.47;68.58
73628;BME280;61923;51.846;5.856;2023-02-22T04:48:55;101253.44;;;15.49;68.80
73628;BME280;61923;51.846;5.856;2023-02-22T04:51:22;101247.72;;;15.36;69.14
73628;BME280;61923;51.846;5.856;2023-02-22T04:53:47;101249.63;;;15.43;68.91
73628;BME280;61923;51.846;5.856;2023-02-22T04:56:13;101225.75;;;15.28;68.82
73628;BME280;61923;51.846;5.856;2023-02-22T04:58:38;101239.31;;;15.42;69.01
73628;BME280;61923;51.846;5.856;2023-02-22T05:01:03;101243.28;;;15.46;68.68
73628;BME280;61923;51.846;5.856;2023-02-22T05:03:29;101236.38;;;15.45;68.81
73628;BME280;61923;51.846;5.856;2023-02-22T05:05:54;101238.31;;;15.43;68.71
73628;BME280;61923;51.846;5.856;2023-02-22T05:08:20;101231.59;;;15.40;68.69
73628;BME280;61923;51.846;5.856;2023-02-22T05:10:45;101225.69;;;15.38;68.59
73628;BME280;61923;51.846;5.856;2023-02-22T05:13:10;101228.31;;;15.38;68.67
73628;BME280;61923;51.846;5.856;2023-02-22T05:15:37;101225.69;;;15.38;68.55
73628;BME280;61923;51.846;5.856;2023-02-22T05:18:02;101209.31;;;15.36;68.54
73628;BME280;61923;51.846;5.856;2023-02-22T05:20:30;101214.69;;;15.34;68.54
73628;BME280;61923;51.846;5.856;2023-02-22T05:22:58;101208.66;;;15.34;68.49
73628;BME280;61923;51.846;5.856;2023-02-22T05:25:24;101217.16;;;15.36;68.24
73628;BME280;61923;51.846;5.856;2023-02-22T05:27:55;101217.47;;;15.33;68.33
73628;BME280;61923;51.846;5.856;2023-02-22T05:30:24;101211.41;;;15.32;68.19
73628;BME280;61923;51.846;5.856;2023-02-22T05:32:51;101214.97;;;15.31;68.23
73628;BME280;61923;51.846;5.856;2023-02-22T05:35:18;101216.63;;;15.32;68.29
73628;BME280;61923;51.846;5.856;2023-02-22T05:37:43;101212.38;;;15.31;68.13
73628;BME280;61923;51.846;5.856;2023-02-22T05:40:09;101214.16;;;15.31;68.17
73628;BME280;61923;51.846;5.856;2023-02-22T05:42:35;101206.47;;;15.29;68.10
73628;BME280;61923;51.846;5.856;2023-02-22T05:45:00;101206.63;;;15.28;68.37
73628;BME280;61923;51.846;5.856;2023-02-22T05:47:26;101198.25;;;15.24;68.24
73628;BME280;61923;51.846;5.856;2023-02-22T05:49:52;101204.00;;;15.28;68.19
73628;BME280;61923;51.846;5.856;2023-02-22T05:52:17;101205.78;;;15.27;68.04
73628;BME280;61923;51.846;5.856;2023-02-22T05:54:43;101194.81;;;15.24;68.10
73628;BME280;61923;51.846;5.856;2023-02-22T05:57:08;101204.00;;;15.28;67.92
73628;BME280;61923;51.846;5.856;2023-02-22T05:59:33;101203.16;;;15.27;68.06
73628;BME280;61923;51.846;5.856;2023-02-22T06:01:59;101185.63;;;15.20;67.98
73628;BME280;61923;51.846;5.856;2023-02-22T06:04:24;101196.00;;;15.29;68.01
73628;BME280;61923;51.846;5.856;2023-02-22T06:06:50;101189.41;;;15.25;67.93
73628;BME280;61923;51.846;5.856;2023-02-22T06:09:15;101197.13;;;15.27;68.04
73628;BME280;61923;51.846;5.856;2023-02-22T06:11:43;101194.38;;;15.28;67.97
73628;BME280;61923;51.846;5.856;2023-02-22T06:14:08;101195.84;;;15.31;67.87
73628;BME280;61923;51.846;5.856;2023-02-22T06:16:34;101185.53;;;15.29;67.86
73628;BME280;61923;51.846;5.856;2023-02-22T06:18:59;101188.59;;;15.25;68.19
73628;BME280;61923;51.846;5.856;2023-02-22T06:21:26;101180.06;;;15.23;67.82
73628;BME280;61923;51.846;5.856;2023-02-22T06:23:52;101197.06;;;15.37;67.66
73628;BME280;61923;51.846;5.856;2023-02-22T06:26:18;101199.28;;;15.31;67.91
73628;BME280;61923;51.846;5.856;2023-02-22T06:28:44;101196.84;;;15.30;68.04
73628;BME280;61923;51.846;5.856;2023-02-22T06:31:12;101190.47;;;15.32;68.10
73628;BME280;61923;51.846;5.856;2023-02-22T06:33:37;101193.38;;;15.29;68.28
73628;BME280;61923;51.846;5.856;2023-02-22T06:36:03;101187.63;;;15.26;68.34
73628;BME280;61923;51.846;5.856;2023-02-22T06:38:29;101178.00;;;15.26;68.42
73628;BME280;61923;51.846;5.856;2023-02-22T06:40:55;101179.63;;;15.27;68.18
73628;BME280;61923;51.846;5.856;2023-02-22T06:43:22;101172.09;;;15.24;68.12
73628;BME280;61923;51.846;5.856;2023-02-22T06:45:49;101163.25;;;15.25;68.13
73628;BME280;61923;51.846;5.856;2023-02-22T06:48:15;101167.53;;;15.26;68.21
73628;BME280;61923;51.846;5.856;2023-02-22T06:50:41;101164.22;;;15.24;68.22
73628;BME280;61923;51.846;5.856;2023-02-22T06:53:06;101163.41;;;15.24;68.41
73628;BME280;61923;51.846;5.856;2023-02-22T06:55:33;101157.19;;;15.25;68.21
73628;BME280;61923;51.846;5.856;2023-02-22T06:57:59;101160.63;;;15.25;68.12
73628;BME280;61923;51.846;5.856;2023-02-22T07:00:26;101154.59;;;15.25;68.30
73628;BME280;61923;51.846;5.856;2023-02-22T07:02:52;101145.91;;;15.24;68.03
73628;BME280;61923;51.846;5.856;2023-02-22T07:05:21;101140.38;;;15.27;67.83
73628;BME280;61923;51.846;5.856;2023-02-22T07:07:48;101152.94;;;15.42;67.64
73628;BME280;61923;51.846;5.856;2023-02-22T07:10:26;101144.72;;;15.37;67.88
73628;BME280;61923;51.846;5.856;2023-02-22T07:12:52;101148.59;;;15.32;67.81
73628;BME280;61923;51.846;5.856;2023-02-22T07:15:19;101125.88;;;15.15;67.84
73628;BME280;61923;51.846;5.856;2023-02-22T07:17:46;101155.78;;;15.30;67.66
73628;BME280;61923;51.846;5.856;2023-02-22T07:20:11;101148.41;;;15.26;67.87
73628;BME280;61923;51.846;5.856;2023-02-22T07:22:38;101160.19;;;15.30;67.79
73628;BME280;61923;51.846;5.856;2023-02-22T07:25:07;101158.41;;;15.30;67.74
73628;BME280;61923;51.846;5.856;2023-02-22T07:27:40;101165.25;;;15.31;67.67
73628;BME280;61923;51.846;5.856;2023-02-22T07:30:07;101167.22;;;15.29;67.81
73628;BME280;61923;51.846;5.856;2023-02-22T07:32:41;101165.44;;;15.30;67.62
73628;BME280;61923;51.846;5.856;2023-02-22T07:35:16;101161.69;;;15.32;67.65
73628;BME280;61923;51.846;5.856;2023-02-22T07:37:43;101138.53;;;15.20;67.60
73628;BME280;61923;51.846;5.856;2023-02-22T07:40:10;101163.50;;;15.32;67.46
73628;BME280;61923;51.846;5.856;2023-02-22T07:42:52;101164.31;;;15.32;67.57
73628;BME280;61923;51.846;5.856;2023-02-22T07:45:18;101158.69;;;15.27;67.42
73628;BME280;61923;51.846;5.856;2023-02-22T07:47:47;101167.28;;;15.38;67.40
73628;BME280;61923;51.846;5.856;2023-02-22T07:50:14;101170.75;;;15.38;67.61
73628;BME280;61923;51.846;5.856;2023-02-22T07:52:44;101170.88;;;15.37;67.53
73628;BME280;61923;51.846;5.856;2023-02-22T07:55:09;101168.66;;;15.42;67.22
73628;BME280;61923;51.846;5.856;2023-02-22T07:57:35;101165.03;;;15.43;67.28
73628;BME280;61923;51.846;5.856;2023-02-22T08:00:00;101153.03;;;15.32;67.23
73628;BME280;61923;51.846;5.856;2023-02-22T08:02:25;101154.72;;;15.41;67.45
73628;BME280;61923;51.846;5.856;2023-02-22T08:04:51;101161.47;;;15.44;67.49
73628;BME280;61923;51.846;5.856;2023-02-22T08:07:16;101168.25;;;15.54;67.34
73628;BME280;61923;51.846;5.856;2023-02-22T08:09:42;101170.41;;;15.59;66.45
73628;BME280;61923;51.846;5.856;2023-02-22T08:12:07;101175.97;;;15.56;66.56
73628;BME280;61923;51.846;5.856;2023-02-22T08:14:32;101162.63;;;15.49;66.57
73628;BME280;61923;51.846;5.856;2023-02-22T08:16:58;101176.63;;;15.58;66.28
73628;BME280;61923;51.846;5.856;2023-02-22T08:19:23;101171.53;;;15.57;66.12
73628;BME280;61923;51.846;5.856;2023-02-22T08:21:49;101152.34;;;15.48;66.12
73628;BME280;61923;51.846;5.856;2023-02-22T08:24:14;101161.88;;;15.57;66.09
73628;BME280;61923;51.846;5.856;2023-02-22T08:26:46;101157.03;;;15.62;66.13
73628;BME280;61923;51.846;5.856;2023-02-22T08:29:11;101148.38;;;15.62;65.92
73628;BME280;61923;51.846;5.856;2023-02-22T08:31:38;101150.13;;;15.61;65.77
73628;BME280;61923;51.846;5.856;2023-02-22T08:34:04;101172.00;;;15.70;65.89
73628;BME280;61923;51.846;5.856;2023-02-22T08:36:29;101180.66;;;15.70;65.82
73628;BME280;61923;51.846;5.856;2023-02-22T08:38:57;101178.84;;;15.71;65.78
73628;BME280;61923;51.846;5.856;2023-02-22T08:41:23;101175.13;;;15.73;65.73
73628;BME280;61923;51.846;5.856;2023-02-22T08:43:48;101171.25;;;15.78;65.63
73628;BME280;61923;51.846;5.856;2023-02-22T08:46:16;101167.19;;;15.83;65.19
73628;BME280;61923;51.846;5.856;2023-02-22T08:48:51;101174.75;;;15.86;65.43
73628;BME280;61923;51.846;5.856;2023-02-22T08:51:17;101173.00;;;15.95;64.97
73628;BME280;61923;51.846;5.856;2023-02-22T08:53:43;101183.75;;;16.10;64.54
73628;BME280;61923;51.846;5.856;2023-02-22T08:56:08;101171.31;;;16.12;64.43
73628;BME280;61923;51.846;5.856;2023-02-22T08:58:34;101174.47;;;16.16;64.17
73628;BME280;61923;51.846;5.856;2023-02-22T09:00:59;101166.59;;;16.16;64.23
73628;BME280;61923;51.846;5.856;2023-02-22T09:03:24;101166.28;;;16.19;64.13
73628;BME280;61923;51.846;5.856;2023-02-22T09:05:50;101153.84;;;16.21;64.03
73628;BME280;61923;51.846;5.856;2023-02-22T09:08:15;101144.72;;;16.33;63.82
73628;BME280;61923;51.846;5.856;2023-02-22T09:10:41;101145.25;;;16.45;63.20
73628;BME280;61923;51.846;5.856;2023-02-22T09:13:06;101134.66;;;16.55;62.79
73628;BME280;61923;51.846;5.856;2023-02-22T09:15:33;101136.00;;;16.67;62.54
73628;BME280;61923;51.846;5.856;2023-02-22T09:18:03;101112.09;;;16.70;61.97
73628;BME280;61923;51.846;5.856;2023-02-22T09:20:29;101137.44;;;17.04;61.25
73628;BME280;61923;51.846;5.856;2023-02-22T09:22:54;101123.69;;;17.18;60.81
73628;BME280;61923;51.846;5.856;2023-02-22T09:25:20;101130.56;;;17.19;60.61
73628;BME280;61923;51.846;5.856;2023-02-22T09:27:51;101136.81;;;17.26;60.52
73628;BME280;61923;51.846;5.856;2023-02-22T09:30:26;101136.00;;;17.26;60.49
73628;BME280;61923;51.846;5.856;2023-02-22T09:32:53;101133.22;;;17.36;60.39
73628;BME280;61923;51.846;5.856;2023-02-22T09:35:20;101134.34;;;17.41;60.23
73628;BME280;61923;51.846;5.856;2023-02-22T09:37:52;101123.69;;;17.43;60.14
73628;BME280;61923;51.846;5.856;2023-02-22T09:40:17;101117.13;;;17.47;60.01
73628;BME280;61923;51.846;5.856;2023-02-22T09:43:16;101117.47;;;17.44;60.22
73628;BME280;61923;51.846;5.856;2023-02-22T09:45:53;101101.22;;;17.40;60.31
73628;BME280;61923;51.846;5.856;2023-02-22T09:48:22;101105.00;;;17.29;60.58
73628;BME280;61923;51.846;5.856;2023-02-22T09:50:52;101110.22;;;17.21;60.94
73628;BME280;61923;51.846;5.856;2023-02-22T09:53:25;101105.16;;;17.11;61.28
73628;BME280;61923;51.846;5.856;2023-02-22T09:56:10;101103.00;;;16.99;61.70
73628;BME280;61923;51.846;5.856;2023-02-22T09:58:51;101107.75;;;16.95;62.29
73628;BME280;61923;51.846;5.856;2023-02-22T10:04:10;101107.88;;;16.85;62.57
73628;BME280;61923;51.846;5.856;2023-02-22T10:06:41;101101.34;;;16.89;62.34
73628;BME280;61923;51.846;5.856;2023-02-22T10:09:08;101091.69;;;16.90;61.92
73628;BME280;61923;51.846;5.856;2023-02-22T10:11:54;101102.69;;;17.02;61.69
73628;BME280;61923;51.846;5.856;2023-02-22T10:20:21;101104.50;;;17.18;61.43
73628;BME280;61923;51.846;5.856;2023-02-22T10:25:29;101098.91;;;17.21;61.44
73628;BME280;61923;51.846;5.856;2023-02-22T10:30:54;101076.09;;;17.13;61.48
73628;BME280;61923;51.846;5.856;2023-02-22T10:33:23;101085.63;;;17.22;61.24
73628;BME280;61923;51.846;5.856;2023-02-22T10:35:54;101084.97;;;17.28;61.40
73628;BME280;61923;51.846;5.856;2023-02-22T10:38:23;101078.25;;;17.26;61.50
73628;BME280;61923;51.846;5.856;2023-02-22T10:41:03;101068.22;;;17.21;61.65
73628;BME280;61923;51.846;5.856;2023-02-22T10:43:43;101083.16;;;17.21;61.72
73628;BME280;61923;51.846;5.856;2023-02-22T10:46:13;101074.47;;;17.28;61.30
73628;BME280;61923;51.846;5.856;2023-02-22T10:48:41;101056.09;;;17.20;61.50
73628;BME280;61923;51.846;5.856;2023-02-22T10:51:09;101057.25;;;17.18;61.53
73628;BME280;61923;51.846;5.856;2023-02-22T10:53:36;101059.03;;;17.25;61.42
73628;BME280;61923;51.846;5.856;2023-02-22T10:56:17;101058.41;;;17.31;61.50
73628;BME280;61923;51.846;5.856;2023-02-22T11:01:22;101051.16;;;17.25;61.44
73628;BME280;61923;51.846;5.856;2023-02-22T11:04:11;101062.81;;;17.31;61.36
73628;BME280;61923;51.846;5.856;2023-02-22T11:06:38;101065.28;;;17.32;61.39
73628;BME280;61923;51.846;5.856;2023-02-22T11:09:19;101064.97;;;17.36;61.15
73628;BME280;61923;51.846;5.856;2023-02-22T11:11:49;101063.00;;;17.38;61.70
73628;BME280;61923;51.846;5.856;2023-02-22T11:14:27;101052.31;;;17.23;61.76
73628;BME280;61923;51.846;5.856;2023-02-22T11:16:53;101058.22;;;17.25;61.72
73628;BME280;61923;51.846;5.856;2023-02-22T11:19:23;101050.72;;;17.14;61.83
73628;BME280;61923;51.846;5.856;2023-02-22T11:21:52;101065.13;;;17.18;61.99
73628;BME280;61923;51.846;5.856;2023-02-22T11:24:21;101063.81;;;17.22;62.19
73628;BME280;61923;51.846;5.856;2023-02-22T11:27:00;101062.31;;;17.19;62.10
73628;BME280;61923;51.846;5.856;2023-02-22T11:29:31;101062.31;;;17.19;62.12
73628;BME280;61923;51.846;5.856;2023-02-22T11:32:18;101052.16;;;17.16;62.11
73628;BME280;61923;51.846;5.856;2023-02-22T11:34:47;101054.63;;;17.18;62.31
73628;BME280;61923;51.846;5.856;2023-02-22T11:37:35;101050.22;;;17.10;62.46
73628;BME280;61923;51.846;5.856;2023-02-22T11:40:17;101046.94;;;17.08;62.76
73628;BME280;61923;51.846;5.856;2023-02-22T11:43:05;101047.25;;;17.05;62.62
73628;BME280;61923;51.846;5.856;2023-02-22T11:45:32;101050.22;;;17.10;62.52
73628;BME280;61923;51.846;5.856;2023-02-22T11:48:01;101039.72;;;17.10;62.55
73628;BME280;61923;51.846;5.856;2023-02-22T11:53:28;101042.31;;;17.18;62.40
73628;BME280;61923;51.846;5.856;2023-02-22T12:01:51;101037.25;;;17.17;62.49
73628;BME280;61923;51.846;5.856;2023-02-22T12:07:04;101031.47;;;17.21;62.76
73628;BME280;61923;51.846;5.856;2023-02-22T12:12:31;101024.75;;;17.27;62.57
73628;BME280;61923;51.846;5.856;2023-02-22T12:20:26;101020.66;;;17.24;62.72
73628;BME280;61923;51.846;5.856;2023-02-22T12:25:33;101009.53;;;17.14;63.23
73628;BME280;61923;51.846;5.856;2023-02-22T12:28:10;101010.16;;;17.24;63.39
73628;BME280;61923;51.846;5.856;2023-02-22T12:30:40;100977.34;;;17.37;63.87
73628;BME280;61923;51.846;5.856;2023-02-22T12:33:16;100989.97;;;17.49;64.09
73628;BME280;61923;51.846;5.856;2023-02-22T12:36:03;100993.69;;;17.55;64.44
73628;BME280;61923;51.846;5.856;2023-02-22T12:38:34;100988.72;;;17.68;64.37
73628;BME280;61923;51.846;5.856;2023-02-22T12:43:45;100978.88;;;17.70;63.89
73628;BME280;61923;51.846;5.856;2023-02-22T12:46:21;100981.03;;;17.67;64.16
73628;BME280;61923;51.846;5.856;2023-02-22T12:48:56;100959.22;;;17.58;63.95
73628;BME280;61923;51.846;5.856;2023-02-22T12:57:11;100980.56;;;17.55;64.98
73628;BME280;61923;51.846;5.856;2023-02-22T12:59:46;100983.84;;;17.57;64.81
73628;BME280;61923;51.846;5.856;2023-02-22T13:04:41;100990.25;;;17.55;64.71
73628;BME280;61923;51.846;5.856;2023-02-22T13:07:17;100988.13;;;17.50;64.77
73628;BME280;61923;51.846;5.856;2023-02-22T13:16:00;100994.88;;;17.44;64.85
73628;BME280;61923;51.846;5.856;2023-02-22T13:26:47;101007.34;;;17.42;65.17
73628;BME280;61923;51.846;5.856;2023-02-22T13:29:31;100999.34;;;17.36;65.31
73628;BME280;61923;51.846;5.856;2023-02-22T13:32:50;101000.16;;;17.28;65.69
73628;BME280;61923;51.846;5.856;2023-02-22T13:38:18;101006.22;;;17.28;65.70
73628;BME280;61923;51.846;5.856;2023-02-22T13:43:42;100993.25;;;17.27;65.65
73628;BME280;61923;51.846;5.856;2023-02-22T13:51:55;100984.09;;;17.15;66.29
73628;BME280;61923;51.846;5.856;2023-02-22T13:57:40;100988.19;;;17.09;66.28
73628;BME280;61923;51.846;5.856;2023-02-22T14:08:04;100994.09;;;17.11;66.27
73628;BME280;61923;51.846;5.856;2023-02-22T14:13:06;100994.28;;;17.01;66.18
73628;BME280;61923;51.846;5.856;2023-02-22T14:15:31;100995.13;;;17.02;66.40
73628;BME280;61923;51.846;5.856;2023-02-22T14:17:58;100999.72;;;17.00;66.62
73628;BME280;61923;51.846;5.856;2023-02-22T14:20:36;100990.19;;;16.99;66.49
73628;BME280;61923;51.846;5.856;2023-02-22T14:23:38;100993.16;;;17.04;66.49
73628;BME280;61923;51.846;5.856;2023-02-22T14:26:28;100990.53;;;17.04;66.41
73628;BME280;61923;51.846;5.856;2023-02-22T14:29:04;100988.88;;;17.03;66.38
73628;BME280;61923;51.846;5.856;2023-02-22T14:34:18;100971.31;;;16.87;66.40
73628;BME280;61923;51.846;5.856;2023-02-22T14:36:55;100993.47;;;17.01;66.37
73628;BME280;61923;51.846;5.856;2023-02-22T14:44:43;100994.47;;;17.00;66.58
73628;BME280;61923;51.846;5.856;2023-02-22T14:47:19;100994.94;;;16.95;66.62
73628;BME280;61923;51.846;5.856;2023-02-22T14:49:50;101001.97;;;17.03;66.46
73628;BME280;61923;51.846;5.856;2023-02-22T14:52:28;100995.44;;;16.99;66.60
73628;BME280;61923;51.846;5.856;2023-02-22T14:58:03;101006.94;;;16.98;66.42
73628;BME280;61923;51.846;5.856;2023-02-22T15:00:44;101003.66;;;16.96;66.35
73628;BME280;61923;51.846;5.856;2023-02-22T15:03:24;101005.09;;;16.98;66.37
73628;BME280;61923;51.846;5.856;2023-02-22T15:05:51;101008.38;;;17.00;66.32
73628;BME280;61923;51.846;5.856;2023-02-22T15:08:17;100982.63;;;16.87;66.21
73628;BME280;61923;51.846;5.856;2023-02-22T15:10:50;100995.44;;;16.90;66.29